createdAt,value
2022-07-30T00:00:11.000Z,22.64
2022-07-30T00:01:11.000Z,22.60
2022-07-30T00:02:11.000Z,22.56
2022-07-30T00:03:11.000Z,22.56
2022-07-30T00:04:11.000Z,22.57
2022-07-30T00:05:10.000Z,22.58
2022-07-30T00:06:11.000Z,22.57
2022-07-30T00:07:11.000Z,22.56
2022-07-30T00:08:11.000Z,22.58
2022-07-30T00:09:11.000Z,22.58
2022-07-30T00:10:11.000Z,22.58
2022-07-30T00:11:11.000Z,22.58
2022-07-30T00:12:11.000Z,22.59
2022-07-30T00:13:11.000Z,22.58
2022-07-30T00:14:11.000Z,22.57
2022-07-30T00:15:11.000Z,22.57
2022-07-30T00:16:11.000Z,22.54
2022-07-30T00:17:11.000Z,22.54
2022-07-30T00:18:11.000Z,22.54
2022-07-30T00:19:11.000Z,22.57
2022-07-30T00:20:11.000Z,22.55
2022-07-30T00:21:11.000Z,22.54
2022-07-30T00:22:11.000Z,22.53
2022-07-30T00:23:11.000Z,22.53
2022-07-30T00:24:11.000Z,22.54
2022-07-30T00:25:11.000Z,22.52
2022-07-30T00:26:10.000Z,22.51
2022-07-30T00:27:13.000Z,22.47
2022-07-30T00:28:11.000Z,22.45
2022-07-30T00:29:11.000Z,22.45
2022-07-30T00:30:11.000Z,22.45
2022-07-30T00:31:11.000Z,22.45
2022-07-30T00:32:11.000Z,22.45
2022-07-30T00:33:11.000Z,22.43
2022-07-30T00:34:11.000Z,22.42
2022-07-30T00:35:11.000Z,22.44
2022-07-30T00:36:11.000Z,22.41
2022-07-30T00:37:11.000Z,22.40
2022-07-30T00:38:11.000Z,22.41
2022-07-30T00:39:11.000Z,22.40
2022-07-30T00:40:11.000Z,22.40
2022-07-30T00:41:11.000Z,22.37
2022-07-30T00:42:10.000Z,22.34
2022-07-30T00:43:15.000Z,22.34
2022-07-30T00:44:10.000Z,22.33
2022-07-30T00:45:12.000Z,22.33
2022-07-30T00:46:11.000Z,22.32
2022-07-30T00:47:11.000Z,22.32
2022-07-30T00:48:12.000Z,22.29
2022-07-30T00:49:10.000Z,22.28
2022-07-30T00:50:12.000Z,22.26
2022-07-30T00:51:10.000Z,22.26
2022-07-30T00:52:11.000Z,22.26
2022-07-30T00:53:10.000Z,22.24
2022-07-30T00:54:14.000Z,22.24
2022-07-30T00:55:13.000Z,22.21
2022-07-30T00:56:11.000Z,22.21
2022-07-30T00:57:11.000Z,22.18
2022-07-30T00:58:11.000Z,22.18
2022-07-30T00:59:11.000Z,22.17
2022-07-30T01:00:14.000Z,22.16
2022-07-30T01:01:10.000Z,22.15
2022-07-30T01:02:11.000Z,22.12
2022-07-30T01:03:10.000Z,22.13
2022-07-30T01:04:11.000Z,22.10
2022-07-30T01:05:11.000Z,22.09
2022-07-30T01:06:11.000Z,22.10
2022-07-30T01:07:11.000Z,22.09
2022-07-30T01:08:10.000Z,22.08
2022-07-30T01:09:10.000Z,22.05
2022-07-30T01:10:13.000Z,22.04
2022-07-30T01:11:11.000Z,22.03
2022-07-30T01:12:15.000Z,22.02
2022-07-30T01:13:11.000Z,22.00
2022-07-30T01:14:11.000Z,21.99
2022-07-30T01:15:11.000Z,21.97
2022-07-30T01:16:13.000Z,21.93
2022-07-30T01:17:10.000Z,21.96
2022-07-30T01:18:13.000Z,21.96
2022-07-30T01:19:23.000Z,21.95
2022-07-30T01:20:15.000Z,21.93
2022-07-30T01:21:14.000Z,21.92
2022-07-30T01:22:33.000Z,21.90
2022-07-30T01:23:21.000Z,21.86
2022-07-30T01:24:20.000Z,21.86
2022-07-30T01:25:20.000Z,21.87
2022-07-30T01:26:17.000Z,21.86
2022-07-30T01:27:12.000Z,21.83
2022-07-30T01:28:19.000Z,21.80
2022-07-30T01:29:13.000Z,21.81
2022-07-30T01:30:15.000Z,21.77
2022-07-30T01:31:13.000Z,21.71
2022-07-30T01:32:12.000Z,21.67
2022-07-30T01:33:13.000Z,21.68
2022-07-30T01:34:15.000Z,21.64
2022-07-30T01:35:12.000Z,21.61
2022-07-30T01:36:15.000Z,21.57
2022-07-30T01:37:12.000Z,21.52
2022-07-30T01:38:12.000Z,21.50
2022-07-30T01:39:13.000Z,21.48
2022-07-30T01:40:11.000Z,21.47
2022-07-30T01:41:13.000Z,21.41
2022-07-30T01:42:12.000Z,21.38
2022-07-30T01:43:11.000Z,21.36
2022-07-30T01:44:12.000Z,21.38
2022-07-30T01:45:12.000Z,21.35
2022-07-30T01:46:13.000Z,21.33
2022-07-30T01:47:13.000Z,21.31
2022-07-30T01:48:13.000Z,21.23
2022-07-30T01:49:12.000Z,21.24
2022-07-30T01:50:13.000Z,21.24
2022-07-30T01:51:12.000Z,21.23
2022-07-30T01:52:13.000Z,21.23
2022-07-30T01:53:21.000Z,21.23
2022-07-30T01:54:12.000Z,21.20
2022-07-30T01:55:15.000Z,21.14
2022-07-30T01:56:13.000Z,21.14
2022-07-30T01:57:13.000Z,21.14
2022-07-30T01:58:13.000Z,21.12
2022-07-30T01:59:13.000Z,21.14
2022-07-30T02:00:12.000Z,21.04
2022-07-30T02:01:11.000Z,21.04
2022-07-30T02:02:11.000Z,20.98
2022-07-30T02:03:11.000Z,20.95
2022-07-30T02:04:11.000Z,20.86
2022-07-30T02:05:11.000Z,20.88
2022-07-30T02:06:20.000Z,20.90
2022-07-30T02:07:18.000Z,20.85
2022-07-30T02:08:18.000Z,20.83
2022-07-30T02:09:14.000Z,20.77
2022-07-30T02:10:21.000Z,20.77
2022-07-30T02:11:14.000Z,20.74
2022-07-30T02:12:21.000Z,20.68
2022-07-30T02:13:15.000Z,20.65
2022-07-30T02:14:20.000Z,20.61
2022-07-30T02:15:26.000Z,20.61
2022-07-30T02:16:20.000Z,20.61
2022-07-30T02:17:17.000Z,20.61
2022-07-30T02:18:19.000Z,20.60
2022-07-30T02:19:16.000Z,20.57
2022-07-30T02:20:14.000Z,20.57
2022-07-30T02:21:11.000Z,20.52
2022-07-30T02:22:14.000Z,20.51
2022-07-30T02:23:14.000Z,20.49
2022-07-30T02:24:14.000Z,20.32
2022-07-30T02:25:16.000Z,20.37
2022-07-30T02:26:14.000Z,20.36
2022-07-30T02:27:14.000Z,20.34
2022-07-30T02:28:13.000Z,20.34
2022-07-30T02:29:12.000Z,20.38
2022-07-30T02:30:11.000Z,20.38
2022-07-30T02:31:15.000Z,20.37
2022-07-30T02:32:14.000Z,20.37
2022-07-30T02:33:15.000Z,20.38
2022-07-30T02:34:15.000Z,20.39
2022-07-30T02:35:18.000Z,20.39
2022-07-30T02:36:13.000Z,20.38
2022-07-30T02:37:13.000Z,20.32
2022-07-30T02:38:14.000Z,20.33
2022-07-30T02:39:13.000Z,20.35
2022-07-30T02:40:16.000Z,20.32
2022-07-30T02:41:11.000Z,20.28
2022-07-30T02:42:12.000Z,20.27
2022-07-30T02:43:13.000Z,20.25
2022-07-30T02:44:11.000Z,20.22
2022-07-30T02:45:14.000Z,20.20
2022-07-30T02:46:12.000Z,20.21
2022-07-30T02:47:14.000Z,20.19
2022-07-30T02:48:12.000Z,20.19
2022-07-30T02:49:13.000Z,20.16
2022-07-30T02:50:12.000Z,20.18
2022-07-30T02:51:15.000Z,20.19
2022-07-30T02:52:15.000Z,20.17
2022-07-30T02:53:14.000Z,20.17
2022-07-30T02:54:14.000Z,20.17
2022-07-30T02:55:11.000Z,20.16
2022-07-30T02:56:11.000Z,20.17
2022-07-30T02:57:13.000Z,20.18
2022-07-30T02:58:15.000Z,20.19
2022-07-30T02:59:12.000Z,20.21
2022-07-30T03:00:11.000Z,20.21
2022-07-30T03:01:14.000Z,20.20
2022-07-30T03:02:12.000Z,20.21
2022-07-30T03:03:11.000Z,20.19
2022-07-30T03:04:12.000Z,20.20
2022-07-30T03:05:13.000Z,20.23
2022-07-30T03:06:13.000Z,20.24
2022-07-30T03:07:11.000Z,20.24
2022-07-30T03:08:12.000Z,20.24
2022-07-30T03:09:10.000Z,20.23
2022-07-30T03:10:11.000Z,20.20
2022-07-30T03:11:11.000Z,20.22
2022-07-30T03:12:12.000Z,20.20
2022-07-30T03:13:12.000Z,20.19
2022-07-30T03:14:10.000Z,20.20
2022-07-30T03:15:10.000Z,20.20
2022-07-30T03:16:11.000Z,20.19
2022-07-30T03:17:13.000Z,20.21
2022-07-30T03:18:12.000Z,20.19
2022-07-30T03:19:12.000Z,20.21
2022-07-30T03:20:13.000Z,20.19
2022-07-30T03:21:11.000Z,20.19
2022-07-30T03:22:12.000Z,20.19
2022-07-30T03:23:14.000Z,20.18
2022-07-30T03:24:12.000Z,20.16
2022-07-30T03:25:14.000Z,20.16
2022-07-30T03:26:12.000Z,20.16
2022-07-30T03:27:12.000Z,20.13
2022-07-30T03:28:12.000Z,20.14
2022-07-30T03:29:12.000Z,20.14
2022-07-30T03:30:11.000Z,20.15
2022-07-30T03:31:13.000Z,20.10
2022-07-30T03:32:10.000Z,20.09
2022-07-30T03:33:11.000Z,20.07
2022-07-30T03:34:11.000Z,20.08
2022-07-30T03:35:11.000Z,20.07
2022-07-30T03:36:11.000Z,20.06
2022-07-30T03:37:10.000Z,20.03
2022-07-30T03:38:14.000Z,20.04
2022-07-30T03:39:11.000Z,20.02
2022-07-30T03:40:12.000Z,20.02
2022-07-30T03:41:11.000Z,20.02
2022-07-30T03:42:10.000Z,20.01
2022-07-30T03:43:12.000Z,19.98
2022-07-30T03:44:10.000Z,19.99
2022-07-30T03:45:13.000Z,19.99
2022-07-30T03:46:12.000Z,19.97
2022-07-30T03:47:12.000Z,19.99
2022-07-30T03:48:12.000Z,19.96
2022-07-30T03:49:11.000Z,19.96
2022-07-30T03:50:12.000Z,19.94
2022-07-30T03:51:11.000Z,19.94
2022-07-30T03:52:10.000Z,19.94
2022-07-30T03:53:10.000Z,19.93
2022-07-30T03:54:11.000Z,19.94
2022-07-30T03:55:11.000Z,19.92
2022-07-30T03:56:12.000Z,19.92
2022-07-30T03:57:11.000Z,19.91
2022-07-30T03:58:10.000Z,19.90
2022-07-30T03:59:11.000Z,19.91
2022-07-30T04:00:13.000Z,19.91
2022-07-30T04:01:10.000Z,19.93
2022-07-30T04:02:11.000Z,19.93
2022-07-30T04:03:11.000Z,19.89
2022-07-30T04:04:10.000Z,19.91
2022-07-30T04:05:11.000Z,19.88
2022-07-30T04:06:10.000Z,19.85
2022-07-30T04:07:10.000Z,19.83
2022-07-30T04:08:10.000Z,19.81
2022-07-30T04:09:11.000Z,19.79
2022-07-30T04:10:12.000Z,19.78
2022-07-30T04:11:11.000Z,19.78
2022-07-30T04:12:12.000Z,19.74
2022-07-30T04:13:11.000Z,19.73
2022-07-30T04:14:10.000Z,19.73
2022-07-30T04:15:12.000Z,19.71
2022-07-30T04:15:12.000Z,19.71
2022-07-30T04:15:12.000Z,19.71
2022-07-30T04:17:00.000Z,19.58
2022-07-30T04:17:23.000Z,19.61
2022-07-30T04:18:14.000Z,19.60
2022-07-30T04:19:24.000Z,19.60
2022-07-30T04:20:16.000Z,19.52
2022-07-30T04:21:14.000Z,19.45
2022-07-30T04:22:14.000Z,19.48
2022-07-30T04:23:11.000Z,19.50
2022-07-30T04:24:12.000Z,19.48
2022-07-30T04:25:12.000Z,19.44
2022-07-30T04:26:12.000Z,19.43
2022-07-30T04:27:11.000Z,19.45
2022-07-30T04:28:12.000Z,19.43
2022-07-30T04:29:11.000Z,19.41
2022-07-30T04:30:11.000Z,19.33
2022-07-30T04:31:11.000Z,19.27
2022-07-30T04:32:11.000Z,19.28
2022-07-30T04:33:11.000Z,19.31
2022-07-30T04:34:14.000Z,19.27
2022-07-30T04:35:11.000Z,19.11
2022-07-30T04:36:11.000Z,19.18
2022-07-30T04:37:11.000Z,19.20
2022-07-30T04:38:12.000Z,19.22
2022-07-30T04:39:11.000Z,19.24
2022-07-30T04:40:11.000Z,19.23
2022-07-30T04:41:11.000Z,19.23
2022-07-30T04:42:12.000Z,19.23
2022-07-30T04:43:11.000Z,19.21
2022-07-30T04:44:11.000Z,19.24
2022-07-30T04:45:11.000Z,19.22
2022-07-30T04:46:13.000Z,19.18
2022-07-30T04:47:11.000Z,19.21
2022-07-30T04:48:11.000Z,19.21
2022-07-30T04:49:12.000Z,19.20
2022-07-30T04:50:12.000Z,19.21
2022-07-30T04:51:16.000Z,19.21
2022-07-30T04:52:11.000Z,19.21
2022-07-30T04:53:11.000Z,19.18
2022-07-30T04:54:12.000Z,19.22
2022-07-30T04:55:12.000Z,19.24
2022-07-30T04:56:12.000Z,19.26
2022-07-30T04:57:13.000Z,19.23
2022-07-30T04:58:12.000Z,19.23
2022-07-30T04:59:11.000Z,19.27
2022-07-30T05:00:11.000Z,19.28
2022-07-30T05:01:17.000Z,19.23
2022-07-30T05:02:13.000Z,19.18
2022-07-30T05:03:12.000Z,19.18
2022-07-30T05:04:12.000Z,19.23
2022-07-30T05:05:14.000Z,19.25
2022-07-30T05:06:11.000Z,19.25
2022-07-30T05:07:12.000Z,19.25
2022-07-30T05:08:11.000Z,19.30
2022-07-30T05:09:13.000Z,19.31
2022-07-30T05:10:11.000Z,19.31
2022-07-30T05:11:11.000Z,19.31
2022-07-30T05:12:11.000Z,19.30
2022-07-30T05:13:12.000Z,19.31
2022-07-30T05:14:11.000Z,19.30
2022-07-30T05:15:11.000Z,19.32
2022-07-30T05:16:11.000Z,19.32
2022-07-30T05:17:11.000Z,19.23
2022-07-30T05:18:11.000Z,19.22
2022-07-30T05:19:11.000Z,19.18
2022-07-30T05:20:11.000Z,19.21
2022-07-30T05:21:11.000Z,19.18
2022-07-30T05:22:11.000Z,19.22
2022-07-30T05:23:11.000Z,19.27
2022-07-30T05:24:11.000Z,19.32
2022-07-30T05:25:11.000Z,19.35
2022-07-30T05:26:11.000Z,19.40
2022-07-30T05:27:11.000Z,19.44
2022-07-30T05:28:11.000Z,19.49
2022-07-30T05:29:11.000Z,19.49
2022-07-30T05:30:11.000Z,19.57
2022-07-30T05:31:11.000Z,19.59
2022-07-30T05:32:11.000Z,19.63
2022-07-30T05:33:11.000Z,19.63
2022-07-30T05:34:11.000Z,19.66
2022-07-30T05:35:11.000Z,19.72
2022-07-30T05:36:11.000Z,19.72
2022-07-30T05:37:11.000Z,19.76
2022-07-30T05:38:11.000Z,19.78
2022-07-30T05:39:11.000Z,19.84
2022-07-30T05:40:11.000Z,19.89
2022-07-30T05:41:10.000Z,19.90
2022-07-30T05:42:10.000Z,19.94
2022-07-30T05:43:10.000Z,19.96
2022-07-30T05:44:10.000Z,19.99
2022-07-30T05:45:10.000Z,20.00
2022-07-30T05:46:11.000Z,20.01
2022-07-30T05:47:10.000Z,20.04
2022-07-30T05:48:10.000Z,20.01
2022-07-30T05:49:11.000Z,20.05
2022-07-30T05:50:11.000Z,20.07
2022-07-30T05:51:10.000Z,20.07
2022-07-30T05:52:10.000Z,20.06
2022-07-30T05:53:10.000Z,20.07
2022-07-30T05:54:10.000Z,20.10
2022-07-30T05:55:10.000Z,20.07
2022-07-30T05:56:11.000Z,20.09
2022-07-30T05:57:10.000Z,20.06
2022-07-30T05:58:10.000Z,20.07
2022-07-30T05:59:10.000Z,20.13
2022-07-30T06:00:11.000Z,20.14
2022-07-30T06:01:10.000Z,20.18
2022-07-30T06:02:10.000Z,20.21
2022-07-30T06:03:11.000Z,20.25
2022-07-30T06:04:11.000Z,20.27
2022-07-30T06:05:11.000Z,20.32
2022-07-30T06:06:10.000Z,20.33
2022-07-30T06:07:10.000Z,20.39
2022-07-30T06:08:10.000Z,20.42
2022-07-30T06:09:10.000Z,20.42
2022-07-30T06:10:10.000Z,20.42
2022-07-30T06:11:10.000Z,20.42
2022-07-30T06:12:11.000Z,20.43
2022-07-30T06:13:11.000Z,20.46
2022-07-30T06:14:11.000Z,20.47
2022-07-30T06:15:11.000Z,20.49
2022-07-30T06:16:11.000Z,20.50
2022-07-30T06:17:11.000Z,20.48
2022-07-30T06:18:11.000Z,20.51
2022-07-30T06:19:11.000Z,20.51
2022-07-30T06:20:12.000Z,20.50
2022-07-30T06:21:11.000Z,20.49
2022-07-30T06:22:11.000Z,20.52
2022-07-30T06:23:11.000Z,20.55
2022-07-30T06:24:11.000Z,20.57
2022-07-30T06:25:11.000Z,20.59
2022-07-30T06:26:11.000Z,20.62
2022-07-30T06:27:11.000Z,20.68
2022-07-30T06:28:11.000Z,20.67
2022-07-30T06:29:11.000Z,20.70
2022-07-30T06:30:11.000Z,20.75
2022-07-30T06:31:11.000Z,20.78
2022-07-30T06:32:11.000Z,20.81
2022-07-30T06:33:11.000Z,20.86
2022-07-30T06:34:11.000Z,20.92
2022-07-30T06:35:11.000Z,20.94
2022-07-30T06:36:12.000Z,20.98
2022-07-30T06:37:11.000Z,20.98
2022-07-30T06:38:11.000Z,21.00
2022-07-30T06:39:11.000Z,21.01
2022-07-30T06:40:11.000Z,21.01
2022-07-30T06:41:11.000Z,21.05
2022-07-30T06:42:10.000Z,21.06
2022-07-30T06:43:10.000Z,21.06
2022-07-30T06:44:10.000Z,21.10
2022-07-30T06:45:10.000Z,21.13
2022-07-30T06:46:10.000Z,21.17
2022-07-30T06:47:10.000Z,21.21
2022-07-30T06:48:10.000Z,21.27
2022-07-30T06:49:10.000Z,21.25
2022-07-30T06:50:10.000Z,21.25
2022-07-30T06:51:10.000Z,21.29
2022-07-30T06:52:10.000Z,21.34
2022-07-30T06:53:10.000Z,21.35
2022-07-30T06:54:10.000Z,21.37
2022-07-30T06:55:10.000Z,21.43
2022-07-30T06:56:11.000Z,21.44
2022-07-30T06:57:10.000Z,21.47
2022-07-30T06:58:10.000Z,21.49
2022-07-30T06:59:10.000Z,21.52
2022-07-30T07:00:10.000Z,21.54
2022-07-30T07:01:10.000Z,21.56
2022-07-30T07:02:10.000Z,21.59
2022-07-30T07:03:10.000Z,21.62
2022-07-30T07:04:10.000Z,21.64
2022-07-30T07:05:10.000Z,21.70
2022-07-30T07:06:10.000Z,21.76
2022-07-30T07:07:10.000Z,21.79
2022-07-30T07:08:10.000Z,21.82
2022-07-30T07:09:10.000Z,21.85
2022-07-30T07:10:10.000Z,21.87
2022-07-30T07:11:10.000Z,21.92
2022-07-30T07:12:10.000Z,21.94
2022-07-30T07:13:11.000Z,21.98
2022-07-30T07:14:11.000Z,21.99
2022-07-30T07:15:11.000Z,22.03
2022-07-30T07:16:11.000Z,22.04
2022-07-30T07:17:12.000Z,22.04
2022-07-30T07:18:11.000Z,22.03
2022-07-30T07:19:10.000Z,22.06
2022-07-30T07:20:11.000Z,22.12
2022-07-30T07:21:11.000Z,22.14
2022-07-30T07:22:11.000Z,22.18
2022-07-30T07:23:11.000Z,22.24
2022-07-30T07:24:11.000Z,22.29
2022-07-30T07:25:11.000Z,22.34
2022-07-30T07:26:11.000Z,22.38
2022-07-30T07:27:11.000Z,22.45
2022-07-30T07:28:11.000Z,22.49
2022-07-30T07:29:11.000Z,22.53
2022-07-30T07:30:11.000Z,22.54
2022-07-30T07:31:11.000Z,22.53
2022-07-30T07:31:11.000Z,22.53
2022-07-30T07:32:11.000Z,22.52
2022-07-30T07:33:11.000Z,22.53
2022-07-30T07:34:11.000Z,22.52
2022-07-30T07:35:12.000Z,22.49
2022-07-30T07:36:11.000Z,22.45
2022-07-30T07:37:11.000Z,22.42
2022-07-30T07:38:11.000Z,22.49
2022-07-30T07:39:11.000Z,22.52
2022-07-30T07:40:11.000Z,22.57
2022-07-30T07:41:11.000Z,22.62
2022-07-30T07:42:11.000Z,22.59
2022-07-30T07:43:11.000Z,22.59
2022-07-30T07:44:11.000Z,22.61
2022-07-30T07:45:11.000Z,22.65
2022-07-30T07:46:15.000Z,22.68
2022-07-30T07:47:11.000Z,22.68
2022-07-30T07:48:11.000Z,22.71
2022-07-30T07:49:11.000Z,22.74
2022-07-30T07:50:14.000Z,22.78
2022-07-30T07:51:11.000Z,22.81
2022-07-30T07:52:11.000Z,22.85
2022-07-30T07:53:11.000Z,22.85
2022-07-30T07:54:11.000Z,22.86
2022-07-30T07:55:11.000Z,22.86
2022-07-30T07:56:11.000Z,22.85
2022-07-30T07:57:11.000Z,22.90
2022-07-30T07:58:12.000Z,22.93
2022-07-30T07:59:11.000Z,22.97
2022-07-30T08:00:13.000Z,23.00
2022-07-30T08:01:11.000Z,23.01
2022-07-30T08:02:11.000Z,23.05
2022-07-30T08:03:11.000Z,23.12
2022-07-30T08:04:11.000Z,23.17
2022-07-30T08:05:11.000Z,23.19
2022-07-30T08:06:11.000Z,23.21
2022-07-30T08:07:11.000Z,23.22
2022-07-30T08:08:11.000Z,23.22
2022-07-30T08:09:11.000Z,23.24
2022-07-30T08:10:13.000Z,23.29
2022-07-30T08:11:11.000Z,23.29
2022-07-30T08:12:13.000Z,23.30
2022-07-30T08:13:10.000Z,23.34
2022-07-30T08:14:10.000Z,23.33
2022-07-30T08:15:10.000Z,23.32
2022-07-30T08:16:10.000Z,23.30
2022-07-30T08:17:10.000Z,23.29
2022-07-30T08:18:11.000Z,23.30
2022-07-30T08:19:10.000Z,23.31
2022-07-30T08:20:12.000Z,23.34
2022-07-30T08:21:10.000Z,23.37
2022-07-30T08:22:10.000Z,23.41
2022-07-30T08:23:10.000Z,23.45
2022-07-30T08:24:10.000Z,23.45
2022-07-30T08:25:10.000Z,23.50
2022-07-30T08:26:10.000Z,23.50
2022-07-30T08:27:10.000Z,23.44
2022-07-30T08:28:10.000Z,23.39
2022-07-30T08:29:10.000Z,23.44
2022-07-30T08:30:11.000Z,23.45
2022-07-30T08:31:10.000Z,23.47
2022-07-30T08:32:10.000Z,23.47
2022-07-30T08:33:10.000Z,23.52
2022-07-30T08:34:11.000Z,23.54
2022-07-30T08:35:10.000Z,23.54
2022-07-30T08:36:10.000Z,23.55
2022-07-30T08:37:10.000Z,23.60
2022-07-30T08:38:11.000Z,23.62
2022-07-30T08:39:10.000Z,23.63
2022-07-30T08:40:10.000Z,23.64
2022-07-30T08:41:11.000Z,23.67
2022-07-30T08:42:12.000Z,23.75
2022-07-30T08:43:10.000Z,23.80
2022-07-30T08:44:11.000Z,23.89
2022-07-30T08:45:12.000Z,23.89
2022-07-30T08:46:13.000Z,23.93
2022-07-30T08:47:15.000Z,24.03
2022-07-30T08:48:12.000Z,24.04
2022-07-30T08:49:11.000Z,24.04
2022-07-30T08:50:11.000Z,24.10
2022-07-30T08:51:11.000Z,24.15
2022-07-30T08:52:11.000Z,24.17
2022-07-30T08:53:12.000Z,24.11
2022-07-30T08:54:11.000Z,24.16
2022-07-30T08:55:11.000Z,24.16
2022-07-30T08:56:11.000Z,24.20
2022-07-30T08:57:11.000Z,24.27
2022-07-30T08:58:25.000Z,24.37
2022-07-30T08:59:11.000Z,24.41
2022-07-30T09:00:11.000Z,24.47
2022-07-30T09:01:10.000Z,24.53
2022-07-30T09:02:11.000Z,24.56
2022-07-30T09:03:11.000Z,24.61
2022-07-30T09:04:10.000Z,24.65
2022-07-30T09:05:11.000Z,24.72
2022-07-30T09:06:11.000Z,24.70
2022-07-30T09:07:10.000Z,24.67
2022-07-30T09:08:11.000Z,24.68
2022-07-30T09:09:10.000Z,24.71
2022-07-30T09:10:11.000Z,24.71
2022-07-30T09:11:11.000Z,24.71
2022-07-30T09:12:21.000Z,24.77
2022-07-30T09:13:21.000Z,24.80
2022-07-30T09:14:13.000Z,24.85
2022-07-30T09:15:19.000Z,24.90
2022-07-30T09:16:22.000Z,24.87
2022-07-30T09:17:10.000Z,24.82
2022-07-30T09:18:10.000Z,24.82
2022-07-30T09:19:16.000Z,24.81
2022-07-30T09:20:11.000Z,24.85
2022-07-30T09:21:17.000Z,24.84
2022-07-30T09:22:14.000Z,24.83
2022-07-30T09:23:10.000Z,24.84
2022-07-30T09:24:11.000Z,24.86
2022-07-30T09:25:11.000Z,24.91
2022-07-30T09:26:10.000Z,24.96
2022-07-30T09:27:10.000Z,24.98
2022-07-30T09:28:11.000Z,24.98
2022-07-30T09:29:15.000Z,25.04
2022-07-30T09:30:11.000Z,25.06
2022-07-30T09:31:10.000Z,25.16
2022-07-30T09:32:10.000Z,25.16
2022-07-30T09:33:11.000Z,25.21
2022-07-30T09:34:20.000Z,25.25
2022-07-30T09:35:11.000Z,25.27
2022-07-30T09:36:16.000Z,25.24
2022-07-30T09:37:17.000Z,25.29
2022-07-30T09:38:11.000Z,25.33
2022-07-30T09:39:10.000Z,25.35
2022-07-30T09:40:13.000Z,25.38
2022-07-30T09:41:11.000Z,25.44
2022-07-30T09:42:17.000Z,25.49
2022-07-30T09:43:11.000Z,25.55
2022-07-30T09:44:22.000Z,25.55
2022-07-30T09:45:12.000Z,25.57
2022-07-30T09:46:11.000Z,25.50
2022-07-30T09:47:30.000Z,25.56
2022-07-30T09:48:19.000Z,25.58
2022-07-30T09:49:15.000Z,25.63
2022-07-30T09:50:12.000Z,25.68
2022-07-30T09:51:11.000Z,25.73
2022-07-30T09:52:25.000Z,25.74
2022-07-30T09:53:10.000Z,25.72
2022-07-30T09:54:10.000Z,25.76
2022-07-30T09:55:11.000Z,25.80
2022-07-30T09:56:20.000Z,25.88
2022-07-30T09:57:10.000Z,25.89
2022-07-30T09:58:10.000Z,25.91
2022-07-30T09:59:23.000Z,25.87
2022-07-30T10:00:17.000Z,25.90
2022-07-30T10:01:10.000Z,25.90
2022-07-30T10:02:10.000Z,25.87
2022-07-30T10:03:19.000Z,25.82
2022-07-30T10:04:22.000Z,25.85
2022-07-30T10:05:12.000Z,25.91
2022-07-30T10:06:10.000Z,25.99
2022-07-30T10:07:16.000Z,26.06
2022-07-30T10:08:11.000Z,26.10
2022-07-30T10:09:23.000Z,26.13
2022-07-30T10:10:10.000Z,26.11
2022-07-30T10:11:17.000Z,26.05
2022-07-30T10:12:12.000Z,26.02
2022-07-30T10:13:12.000Z,25.95
2022-07-30T10:14:10.000Z,25.93
2022-07-30T10:15:13.000Z,25.95
2022-07-30T10:16:10.000Z,25.87
2022-07-30T10:17:11.000Z,25.78
2022-07-30T10:18:11.000Z,25.83
2022-07-30T10:19:11.000Z,25.84
2022-07-30T10:20:11.000Z,25.91
2022-07-30T10:21:11.000Z,25.97
2022-07-30T10:22:13.000Z,26.05
2022-07-30T10:23:11.000Z,26.13
2022-07-30T10:24:12.000Z,26.23
2022-07-30T10:25:11.000Z,26.29
2022-07-30T10:26:11.000Z,26.37
2022-07-30T10:27:10.000Z,26.43
2022-07-30T10:28:10.000Z,26.40
2022-07-30T10:29:11.000Z,26.36
2022-07-30T10:30:11.000Z,26.32
2022-07-30T10:31:11.000Z,26.34
2022-07-30T10:32:11.000Z,26.43
2022-07-30T10:33:11.000Z,26.46
2022-07-30T10:34:12.000Z,26.58
2022-07-30T10:35:12.000Z,26.62
2022-07-30T10:36:11.000Z,26.65
2022-07-30T10:37:13.000Z,26.68
2022-07-30T10:38:14.000Z,26.70
2022-07-30T10:39:16.000Z,26.73
2022-07-30T10:40:24.000Z,26.74
2022-07-30T10:41:34.000Z,26.78
2022-07-30T10:42:33.000Z,26.83
2022-07-30T10:43:20.000Z,26.84
2022-07-30T10:44:25.000Z,26.82
2022-07-30T10:45:16.000Z,26.83
2022-07-30T10:46:20.000Z,26.97
2022-07-30T10:47:15.000Z,26.86
2022-07-30T10:48:11.000Z,26.88
2022-07-30T10:49:12.000Z,26.86
2022-07-30T10:50:14.000Z,26.79
2022-07-30T10:51:10.000Z,26.83
2022-07-30T10:52:10.000Z,26.83
2022-07-30T10:53:30.000Z,26.76
2022-07-30T10:54:20.000Z,26.87
2022-07-30T10:55:12.000Z,26.75
2022-07-30T10:56:17.000Z,26.76
2022-07-30T10:57:16.000Z,26.78
2022-07-30T10:58:12.000Z,26.86
2022-07-30T10:59:10.000Z,27.02
2022-07-30T11:00:11.000Z,27.01
2022-07-30T11:01:10.000Z,27.14
2022-07-30T11:02:10.000Z,27.09
2022-07-30T11:03:17.000Z,27.12
2022-07-30T11:04:19.000Z,27.18
2022-07-30T11:05:30.000Z,27.19
2022-07-30T11:06:28.000Z,27.04
2022-07-30T11:07:20.000Z,27.04
2022-07-30T11:08:20.000Z,27.06
2022-07-30T11:09:31.000Z,27.09
2022-07-30T11:10:20.000Z,27.08
2022-07-30T11:11:20.000Z,27.01
2022-07-30T11:12:10.000Z,26.98
2022-07-30T11:13:10.000Z,26.94
2022-07-30T11:14:11.000Z,26.94
2022-07-30T11:15:12.000Z,26.91
2022-07-30T11:16:10.000Z,26.81
2022-07-30T11:17:11.000Z,26.84
2022-07-30T11:18:09.000Z,26.91
2022-07-30T11:19:16.000Z,27.07
2022-07-30T11:20:11.000Z,26.98
2022-07-30T11:21:16.000Z,26.90
2022-07-30T11:22:20.000Z,26.91
2022-07-30T11:23:32.000Z,27.09
2022-07-30T11:24:20.000Z,27.16
2022-07-30T11:25:21.000Z,27.22
2022-07-30T11:26:30.000Z,27.27
2022-07-30T11:27:29.000Z,27.32
2022-07-30T11:28:32.000Z,27.45
2022-07-30T11:29:20.000Z,27.42
2022-07-30T11:30:30.000Z,27.46
2022-07-30T11:31:20.000Z,27.54
2022-07-30T11:32:20.000Z,27.54
2022-07-30T11:33:20.000Z,27.57
2022-07-30T11:34:33.000Z,27.75
2022-07-30T11:35:19.000Z,27.76
2022-07-30T11:36:10.000Z,27.78
2022-07-30T11:37:14.000Z,27.78
2022-07-30T11:38:15.000Z,27.78
2022-07-30T11:39:09.000Z,27.79
2022-07-30T11:40:10.000Z,27.74
2022-07-30T11:41:09.000Z,27.65
2022-07-30T11:42:23.000Z,27.68
2022-07-30T11:43:29.000Z,27.72
2022-07-30T11:44:20.000Z,27.69
2022-07-30T11:45:18.000Z,27.69
2022-07-30T11:46:13.000Z,27.62
2022-07-30T11:47:10.000Z,27.64
2022-07-30T11:48:14.000Z,27.63
2022-07-30T11:49:11.000Z,27.61
2022-07-30T11:50:26.000Z,27.61
2022-07-30T11:51:10.000Z,27.64
2022-07-30T11:52:10.000Z,27.65
2022-07-30T11:53:18.000Z,27.60
2022-07-30T11:54:11.000Z,27.53
2022-07-30T11:55:20.000Z,27.52
2022-07-30T11:56:12.000Z,27.51
2022-07-30T11:57:10.000Z,27.46
2022-07-30T11:58:23.000Z,27.43
2022-07-30T11:59:10.000Z,27.39
2022-07-30T12:00:10.000Z,27.37
2022-07-30T12:01:13.000Z,27.31
2022-07-30T12:02:10.000Z,27.28
2022-07-30T12:03:12.000Z,27.28
2022-07-30T12:04:10.000Z,27.28
2022-07-30T12:05:11.000Z,27.24
2022-07-30T12:06:14.000Z,27.26
2022-07-30T12:07:10.000Z,27.35
2022-07-30T12:08:11.000Z,27.33
2022-07-30T12:09:10.000Z,27.41
2022-07-30T12:10:14.000Z,27.40
2022-07-30T12:11:11.000Z,27.39
2022-07-30T12:12:25.000Z,27.38
2022-07-30T12:13:13.000Z,27.39
2022-07-30T12:14:10.000Z,27.39
2022-07-30T12:15:30.000Z,27.40
2022-07-30T12:16:15.000Z,27.44
2022-07-30T12:17:10.000Z,27.41
2022-07-30T12:18:12.000Z,27.39
2022-07-30T12:19:10.000Z,27.33
2022-07-30T12:20:16.000Z,27.28
2022-07-30T12:21:12.000Z,27.33
2022-07-30T12:22:10.000Z,27.44
2022-07-30T12:23:11.000Z,27.48
2022-07-30T12:24:10.000Z,27.57
2022-07-30T12:25:11.000Z,27.63
2022-07-30T12:26:19.000Z,27.71
2022-07-30T12:27:11.000Z,27.83
2022-07-30T12:28:28.000Z,27.99
2022-07-30T12:29:12.000Z,27.98
2022-07-30T12:30:10.000Z,28.02
2022-07-30T12:31:14.000Z,28.04
2022-07-30T12:32:10.000Z,28.10
2022-07-30T12:33:10.000Z,28.17
2022-07-30T12:34:19.000Z,28.28
2022-07-30T12:35:10.000Z,28.28
2022-07-30T12:36:32.000Z,28.28
2022-07-30T12:37:10.000Z,28.33
2022-07-30T12:38:11.000Z,28.40
2022-07-30T12:39:18.000Z,28.43
2022-07-30T12:40:12.000Z,28.42
2022-07-30T12:41:10.000Z,28.46
2022-07-30T12:42:18.000Z,28.48
2022-07-30T12:43:10.000Z,28.57
2022-07-30T12:44:30.000Z,28.62
2022-07-30T12:45:29.000Z,28.64
2022-07-30T12:46:13.000Z,28.62
2022-07-30T12:47:20.000Z,28.66
2022-07-30T12:48:10.000Z,28.67
2022-07-30T12:49:09.000Z,28.80